sensor_id;sensor_type;location;lat;lon;timestamp;P1;durP1;ratioP1;P2;durP2;ratioP2
78901;SDS011;70441;44.758;37.686;2023-07-24T00:00:37;28.15;;;21.38;;
78901;SDS011;70441;44.758;37.686;2023-07-24T00:01:41;14.07;;;9.45;;
78901;SDS011;70441;44.758;37.686;2023-07-24T00:02:43;14.32;;;9.50;;
78901;SDS011;70441;44.758;37.686;2023-07-24T00:03:44;11.88;;;5.88;;
78901;SDS011;70441;44.758;37.686;2023-07-24T00:04:46;8.60;;;5.55;;
78901;SDS011;70441;44.758;37.686;2023-07-24T00:05:48;8.98;;;5.30;;
78901;SDS011;70441;44.758;37.686;2023-07-24T00:06:49;7.55;;;5.18;;
78901;SDS011;70441;44.758;37.686;2023-07-24T00:07:51;9.55;;;6.35;;
78901;SDS011;70441;44.758;37.686;2023-07-24T00:08:53;9.73;;;5.53;;
78901;SDS011;70441;44.758;37.686;2023-07-24T00:09:54;8.38;;;5.68;;
78901;SDS011;70441;44.758;37.686;2023-07-24T00:10:56;11.02;;;5.80;;
78901;SDS011;70441;44.758;37.686;2023-07-24T00:11:58;8.13;;;5.43;;
78901;SDS011;70441;44.758;37.686;2023-07-24T00:12:59;8.38;;;5.25;;
78901;SDS011;70441;44.758;37.686;2023-07-24T00:14:02;9.68;;;5.78;;
78901;SDS011;70441;44.758;37.686;2023-07-24T00:15:03;9.77;;;5.63;;
78901;SDS011;70441;44.758;37.686;2023-07-24T00:16:06;14.05;;;7.68;;
78901;SDS011;70441;44.758;37.686;2023-07-24T00:17:09;7.57;;;5.60;;
78901;SDS011;70441;44.758;37.686;2023-07-24T00:18:10;9.75;;;4.90;;
78901;SDS011;70441;44.758;37.686;2023-07-24T00:19:12;9.60;;;5.07;;
78901;SDS011;70441;44.758;37.686;2023-07-24T00:20:13;8.65;;;4.82;;
78901;SDS011;70441;44.758;37.686;2023-07-24T00:21:15;8.27;;;4.75;;
78901;SDS011;70441;44.758;37.686;2023-07-24T00:22:16;8.35;;;5.10;;
78901;SDS011;70441;44.758;37.686;2023-07-24T00:23:18;9.32;;;5.65;;
78901;SDS011;70441;44.758;37.686;2023-07-24T00:24:20;10.10;;;5.55;;
78901;SDS011;70441;44.758;37.686;2023-07-24T00:25:21;8.95;;;4.78;;
78901;SDS011;70441;44.758;37.686;2023-07-24T00:26:23;9.05;;;5.07;;
78901;SDS011;70441;44.758;37.686;2023-07-24T00:27:25;8.65;;;5.22;;
78901;SDS011;70441;44.758;37.686;2023-07-24T00:28:26;9.10;;;5.60;;
78901;SDS011;70441;44.758;37.686;2023-07-24T00:29:28;9.75;;;5.25;;
78901;SDS011;70441;44.758;37.686;2023-07-24T00:30:30;9.30;;;5.55;;
78901;SDS011;70441;44.758;37.686;2023-07-24T00:31:31;11.23;;;6.68;;
78901;SDS011;70441;44.758;37.686;2023-07-24T00:32:33;7.32;;;4.78;;
78901;SDS011;70441;44.758;37.686;2023-07-24T00:33:36;9.63;;;6.30;;
78901;SDS011;70441;44.758;37.686;2023-07-24T00:34:39;9.88;;;5.93;;
78901;SDS011;70441;44.758;37.686;2023-07-24T00:35:40;9.45;;;5.57;;
78901;SDS011;70441;44.758;37.686;2023-07-24T00:36:42;9.65;;;5.15;;
78901;SDS011;70441;44.758;37.686;2023-07-24T00:37:44;9.88;;;6.95;;
78901;SDS011;70441;44.758;37.686;2023-07-24T00:38:46;12.60;;;7.18;;
78901;SDS011;70441;44.758;37.686;2023-07-24T00:39:49;12.77;;;7.28;;
78901;SDS011;70441;44.758;37.686;2023-07-24T00:40:52;9.60;;;5.03;;
78901;SDS011;70441;44.758;37.686;2023-07-24T00:41:54;11.20;;;6.82;;
78901;SDS011;70441;44.758;37.686;2023-07-24T00:43:58;13.40;;;7.70;;
78901;SDS011;70441;44.758;37.686;2023-07-24T00:45:00;12.40;;;7.25;;
78901;SDS011;70441;44.758;37.686;2023-07-24T00:46:01;13.77;;;7.65;;
78901;SDS011;70441;44.758;37.686;2023-07-24T00:47:04;10.82;;;7.43;;
78901;SDS011;70441;44.758;37.686;2023-07-24T02:53:09;13.13;;;7.80;;
78901;SDS011;70441;44.758;37.686;2023-07-24T02:54:10;13.75;;;6.50;;
78901;SDS011;70441;44.758;37.686;2023-07-24T02:55:12;15.98;;;8.00;;
78901;SDS011;70441;44.758;37.686;2023-07-24T02:56:13;15.45;;;9.75;;
78901;SDS011;70441;44.758;37.686;2023-07-24T02:57:14;17.52;;;11.18;;
78901;SDS011;70441;44.758;37.686;2023-07-24T02:58:15;8.63;;;5.45;;
78901;SDS011;70441;44.758;37.686;2023-07-24T03:05:34;14.98;;;7.82;;
78901;SDS011;70441;44.758;37.686;2023-07-24T03:06:36;15.63;;;8.98;;
78901;SDS011;70441;44.758;37.686;2023-07-24T03:07:37;14.95;;;8.32;;
78901;SDS011;70441;44.758;37.686;2023-07-24T03:08:44;13.52;;;7.60;;
78901;SDS011;70441;44.758;37.686;2023-07-24T03:09:45;13.38;;;9.50;;
78901;SDS011;70441;44.758;37.686;2023-07-24T03:10:47;13.90;;;10.65;;
78901;SDS011;70441;44.758;37.686;2023-07-24T03:11:49;16.75;;;9.25;;
78901;SDS011;70441;44.758;37.686;2023-07-24T03:12:52;15.05;;;8.93;;
78901;SDS011;70441;44.758;37.686;2023-07-24T03:13:53;14.10;;;9.57;;
78901;SDS011;70441;44.758;37.686;2023-07-24T03:14:54;16.13;;;9.60;;
78901;SDS011;70441;44.758;37.686;2023-07-24T03:15:57;13.55;;;9.02;;
78901;SDS011;70441;44.758;37.686;2023-07-24T03:16:59;13.55;;;9.13;;
78901;SDS011;70441;44.758;37.686;2023-07-24T03:18:00;12.95;;;8.30;;
78901;SDS011;70441;44.758;37.686;2023-07-24T03:19:01;18.75;;;9.00;;
78901;SDS011;70441;44.758;37.686;2023-07-24T03:20:13;12.70;;;9.35;;
78901;SDS011;70441;44.758;37.686;2023-07-24T03:21:16;14.82;;;6.72;;
78901;SDS011;70441;44.758;37.686;2023-07-24T03:22:17;11.52;;;6.22;;
78901;SDS011;70441;44.758;37.686;2023-07-24T03:23:18;12.82;;;8.63;;
78901;SDS011;70441;44.758;37.686;2023-07-24T03:24:22;15.93;;;9.50;;
78901;SDS011;70441;44.758;37.686;2023-07-24T03:25:25;11.95;;;8.48;;
78901;SDS011;70441;44.758;37.686;2023-07-24T03:26:31;12.27;;;7.30;;
78901;SDS011;70441;44.758;37.686;2023-07-24T03:27:33;13.20;;;8.32;;
78901;SDS011;70441;44.758;37.686;2023-07-24T03:28:34;9.48;;;5.70;;
78901;SDS011;70441;44.758;37.686;2023-07-24T03:29:40;11.13;;;6.40;;
78901;SDS011;70441;44.758;37.686;2023-07-24T03:30:42;13.57;;;7.93;;
78901;SDS011;70441;44.758;37.686;2023-07-24T03:31:43;11.82;;;7.78;;
78901;SDS011;70441;44.758;37.686;2023-07-24T03:32:44;11.98;;;7.47;;
78901;SDS011;70441;44.758;37.686;2023-07-24T03:33:46;10.80;;;6.88;;
78901;SDS011;70441;44.758;37.686;2023-07-24T03:34:47;11.10;;;6.43;;
78901;SDS011;70441;44.758;37.686;2023-07-24T03:35:48;11.20;;;7.60;;
78901;SDS011;70441;44.758;37.686;2023-07-24T03:36:50;11.57;;;6.60;;
78901;SDS011;70441;44.758;37.686;2023-07-24T03:37:51;11.98;;;7.45;;
78901;SDS011;70441;44.758;37.686;2023-07-24T03:38:52;10.90;;;7.32;;
78901;SDS011;70441;44.758;37.686;2023-07-24T03:39:54;12.15;;;6.68;;
78901;SDS011;70441;44.758;37.686;2023-07-24T03:47:46;11.82;;;6.40;;
78901;SDS011;70441;44.758;37.686;2023-07-24T03:48:47;10.80;;;5.97;;
78901;SDS011;70441;44.758;37.686;2023-07-24T03:49:50;12.73;;;6.63;;
78901;SDS011;70441;44.758;37.686;2023-07-24T03:50:57;10.68;;;6.72;;
78901;SDS011;70441;44.758;37.686;2023-07-24T03:52:00;12.18;;;6.30;;
78901;SDS011;70441;44.758;37.686;2023-07-24T03:53:01;9.93;;;6.28;;
78901;SDS011;70441;44.758;37.686;2023-07-24T03:54:03;9.57;;;5.68;;
78901;SDS011;70441;44.758;37.686;2023-07-24T03:55:04;10.43;;;6.10;;
78901;SDS011;70441;44.758;37.686;2023-07-24T03:56:06;11.23;;;7.10;;
78901;SDS011;70441;44.758;37.686;2023-07-24T03:57:07;11.15;;;6.35;;
78901;SDS011;70441;44.758;37.686;2023-07-24T03:58:08;10.32;;;6.10;;
78901;SDS011;70441;44.758;37.686;2023-07-24T03:59:10;9.88;;;6.45;;
78901;SDS011;70441;44.758;37.686;2023-07-24T04:00:12;10.50;;;5.60;;
78901;SDS011;70441;44.758;37.686;2023-07-24T04:01:13;10.85;;;6.53;;
78901;SDS011;70441;44.758;37.686;2023-07-24T04:02:15;10.80;;;7.05;;
78901;SDS011;70441;44.758;37.686;2023-07-24T04:03:16;11.85;;;7.50;;
78901;SDS011;70441;44.758;37.686;2023-07-24T04:04:18;9.70;;;5.70;;
78901;SDS011;70441;44.758;37.686;2023-07-24T04:05:19;10.13;;;6.75;;
78901;SDS011;70441;44.758;37.686;2023-07-24T04:06:20;8.43;;;5.85;;
78901;SDS011;70441;44.758;37.686;2023-07-24T04:07:22;10.27;;;5.78;;
78901;SDS011;70441;44.758;37.686;2023-07-24T04:08:28;9.60;;;6.22;;
78901;SDS011;70441;44.758;37.686;2023-07-24T04:09:29;11.32;;;5.85;;
78901;SDS011;70441;44.758;37.686;2023-07-24T04:10:30;9.43;;;5.90;;
78901;SDS011;70441;44.758;37.686;2023-07-24T04:11:31;9.50;;;6.18;;
78901;SDS011;70441;44.758;37.686;2023-07-24T04:12:33;9.98;;;5.72;;
78901;SDS011;70441;44.758;37.686;2023-07-24T04:13:34;8.13;;;5.18;;
78901;SDS011;70441;44.758;37.686;2023-07-24T04:14:36;10.73;;;5.60;;
78901;SDS011;70441;44.758;37.686;2023-07-24T04:15:37;8.75;;;5.63;;
78901;SDS011;70441;44.758;37.686;2023-07-24T04:16:40;9.70;;;6.85;;
78901;SDS011;70441;44.758;37.686;2023-07-24T04:17:41;11.98;;;6.18;;
78901;SDS011;70441;44.758;37.686;2023-07-24T04:18:42;18.00;;;6.65;;
78901;SDS011;70441;44.758;37.686;2023-07-24T04:19:44;10.65;;;5.82;;
78901;SDS011;70441;44.758;37.686;2023-07-24T04:21:47;8.85;;;6.00;;
78901;SDS011;70441;44.758;37.686;2023-07-24T04:22:48;10.18;;;5.25;;
78901;SDS011;70441;44.758;37.686;2023-07-24T04:23:49;8.85;;;6.10;;
78901;SDS011;70441;44.758;37.686;2023-07-24T04:24:51;9.85;;;5.60;;
78901;SDS011;70441;44.758;37.686;2023-07-24T04:25:52;11.60;;;5.88;;
78901;SDS011;70441;44.758;37.686;2023-07-24T04:26:53;9.50;;;5.55;;
78901;SDS011;70441;44.758;37.686;2023-07-24T04:28:00;13.15;;;5.55;;
78901;SDS011;70441;44.758;37.686;2023-07-24T04:29:01;10.05;;;5.63;;
78901;SDS011;70441;44.758;37.686;2023-07-24T04:30:03;9.65;;;5.60;;
78901;SDS011;70441;44.758;37.686;2023-07-24T04:31:05;9.75;;;5.53;;
78901;SDS011;70441;44.758;37.686;2023-07-24T04:32:06;31.70;;;10.90;;
78901;SDS011;70441;44.758;37.686;2023-07-24T04:33:09;8.50;;;5.38;;
78901;SDS011;70441;44.758;37.686;2023-07-24T04:34:10;7.78;;;5.10;;
78901;SDS011;70441;44.758;37.686;2023-07-24T04:35:17;9.98;;;5.60;;
78901;SDS011;70441;44.758;37.686;2023-07-24T04:36:18;8.80;;;5.22;;
78901;SDS011;70441;44.758;37.686;2023-07-24T04:37:19;8.80;;;5.53;;
78901;SDS011;70441;44.758;37.686;2023-07-24T04:38:21;8.88;;;5.93;;
78901;SDS011;70441;44.758;37.686;2023-07-24T04:39:23;11.40;;;6.03;;
78901;SDS011;70441;44.758;37.686;2023-07-24T04:40:24;8.52;;;5.80;;
78901;SDS011;70441;44.758;37.686;2023-07-24T04:41:25;9.35;;;5.72;;
78901;SDS011;70441;44.758;37.686;2023-07-24T04:42:27;10.50;;;4.93;;
78901;SDS011;70441;44.758;37.686;2023-07-24T04:43:28;9.05;;;5.07;;
78901;SDS011;70441;44.758;37.686;2023-07-24T04:44:30;8.13;;;5.03;;
78901;SDS011;70441;44.758;37.686;2023-07-24T04:45:32;6.70;;;3.83;;
78901;SDS011;70441;44.758;37.686;2023-07-24T04:46:34;9.63;;;5.30;;
78901;SDS011;70441;44.758;37.686;2023-07-24T04:47:35;10.60;;;5.18;;
78901;SDS011;70441;44.758;37.686;2023-07-24T04:48:37;10.23;;;5.43;;
78901;SDS011;70441;44.758;37.686;2023-07-24T04:49:39;9.18;;;4.85;;
78901;SDS011;70441;44.758;37.686;2023-07-24T04:50:40;16.45;;;5.60;;
78901;SDS011;70441;44.758;37.686;2023-07-24T04:51:41;12.52;;;5.28;;
78901;SDS011;70441;44.758;37.686;2023-07-24T04:52:42;10.05;;;5.35;;
78901;SDS011;70441;44.758;37.686;2023-07-24T04:53:44;9.30;;;5.05;;
78901;SDS011;70441;44.758;37.686;2023-07-24T04:54:45;13.48;;;5.82;;
78901;SDS011;70441;44.758;37.686;2023-07-24T04:55:47;8.88;;;5.07;;
78901;SDS011;70441;44.758;37.686;2023-07-24T04:56:48;6.75;;;4.25;;
78901;SDS011;70441;44.758;37.686;2023-07-24T04:57:50;8.70;;;5.93;;
78901;SDS011;70441;44.758;37.686;2023-07-24T04:58:51;8.70;;;4.85;;
78901;SDS011;70441;44.758;37.686;2023-07-24T04:59:52;9.88;;;5.32;;
78901;SDS011;70441;44.758;37.686;2023-07-24T05:00:54;6.68;;;4.10;;
78901;SDS011;70441;44.758;37.686;2023-07-24T05:01:55;8.05;;;4.63;;
78901;SDS011;70441;44.758;37.686;2023-07-24T05:02:56;8.35;;;4.72;;
78901;SDS011;70441;44.758;37.686;2023-07-24T05:03:58;9.73;;;5.00;;
78901;SDS011;70441;44.758;37.686;2023-07-24T05:04:59;9.02;;;4.57;;
78901;SDS011;70441;44.758;37.686;2023-07-24T05:06:01;8.75;;;4.65;;
78901;SDS011;70441;44.758;37.686;2023-07-24T05:07:02;9.82;;;5.07;;
78901;SDS011;70441;44.758;37.686;2023-07-24T05:08:03;12.43;;;5.10;;
78901;SDS011;70441;44.758;37.686;2023-07-24T05:09:05;9.00;;;5.32;;
78901;SDS011;70441;44.758;37.686;2023-07-24T05:10:06;8.18;;;4.93;;
78901;SDS011;70441;44.758;37.686;2023-07-24T05:11:08;9.05;;;5.00;;
78901;SDS011;70441;44.758;37.686;2023-07-24T05:12:09;7.63;;;4.63;;
78901;SDS011;70441;44.758;37.686;2023-07-24T05:13:11;9.15;;;5.20;;
78901;SDS011;70441;44.758;37.686;2023-07-24T05:14:12;8.65;;;5.18;;
78901;SDS011;70441;44.758;37.686;2023-07-24T05:15:18;8.20;;;4.65;;
78901;SDS011;70441;44.758;37.686;2023-07-24T05:16:20;9.82;;;4.78;;
78901;SDS011;70441;44.758;37.686;2023-07-24T05:17:22;7.05;;;4.65;;
78901;SDS011;70441;44.758;37.686;2023-07-24T05:18:24;7.80;;;4.78;;
78901;SDS011;70441;44.758;37.686;2023-07-24T05:19:25;10.93;;;4.55;;
78901;SDS011;70441;44.758;37.686;2023-07-24T05:20:27;12.77;;;4.70;;
78901;SDS011;70441;44.758;37.686;2023-07-24T05:21:28;9.38;;;4.70;;
78901;SDS011;70441;44.758;37.686;2023-07-24T05:22:30;9.25;;;4.90;;
78901;SDS011;70441;44.758;37.686;2023-07-24T05:23:31;9.02;;;4.18;;
78901;SDS011;70441;44.758;37.686;2023-07-24T05:24:33;11.07;;;4.90;;
78901;SDS011;70441;44.758;37.686;2023-07-24T05:25:34;16.75;;;5.63;;
78901;SDS011;70441;44.758;37.686;2023-07-24T05:26:36;8.75;;;4.47;;
78901;SDS011;70441;44.758;37.686;2023-07-24T05:27:37;8.30;;;4.85;;
78901;SDS011;70441;44.758;37.686;2023-07-24T05:28:38;10.85;;;5.03;;
78901;SDS011;70441;44.758;37.686;2023-07-24T05:29:40;14.82;;;6.10;;
78901;SDS011;70441;44.758;37.686;2023-07-24T05:30:41;10.25;;;4.30;;
78901;SDS011;70441;44.758;37.686;2023-07-24T05:31:42;11.68;;;4.63;;
78901;SDS011;70441;44.758;37.686;2023-07-24T05:32:44;7.35;;;4.28;;
78901;SDS011;70441;44.758;37.686;2023-07-24T05:33:45;9.05;;;4.93;;
78901;SDS011;70441;44.758;37.686;2023-07-24T05:34:46;10.82;;;4.80;;
78901;SDS011;70441;44.758;37.686;2023-07-24T05:35:48;8.55;;;4.78;;
78901;SDS011;70441;44.758;37.686;2023-07-24T05:36:50;8.65;;;3.97;;
78901;SDS011;70441;44.758;37.686;2023-07-24T05:37:52;7.43;;;3.60;;
78901;SDS011;70441;44.758;37.686;2023-07-24T05:38:53;9.80;;;4.80;;
78901;SDS011;70441;44.758;37.686;2023-07-24T05:39:54;8.23;;;5.20;;
78901;SDS011;70441;44.758;37.686;2023-07-24T05:40:56;11.95;;;5.07;;
78901;SDS011;70441;44.758;37.686;2023-07-24T05:42:03;12.15;;;4.70;;
78901;SDS011;70441;44.758;37.686;2023-07-24T05:43:05;8.30;;;4.15;;
78901;SDS011;70441;44.758;37.686;2023-07-24T05:44:07;8.90;;;4.70;;
78901;SDS011;70441;44.758;37.686;2023-07-24T05:45:09;8.57;;;4.30;;
78901;SDS011;70441;44.758;37.686;2023-07-24T05:46:11;6.05;;;3.47;;
78901;SDS011;70441;44.758;37.686;2023-07-24T05:47:13;7.25;;;3.25;;
78901;SDS011;70441;44.758;37.686;2023-07-24T05:48:14;12.13;;;4.47;;
78901;SDS011;70441;44.758;37.686;2023-07-24T05:49:15;20.77;;;5.80;;
78901;SDS011;70441;44.758;37.686;2023-07-24T05:50:16;9.57;;;4.65;;
78901;SDS011;70441;44.758;37.686;2023-07-24T05:51:18;11.25;;;4.55;;
78901;SDS011;70441;44.758;37.686;2023-07-24T05:52:19;8.90;;;4.53;;
78901;SDS011;70441;44.758;37.686;2023-07-24T05:53:20;6.88;;;3.22;;
78901;SDS011;70441;44.758;37.686;2023-07-24T05:54:22;12.38;;;4.35;;
78901;SDS011;70441;44.758;37.686;2023-07-24T05:55:23;10.80;;;4.57;;
78901;SDS011;70441;44.758;37.686;2023-07-24T05:56:25;19.75;;;4.88;;
78901;SDS011;70441;44.758;37.686;2023-07-24T05:57:26;6.93;;;4.07;;
78901;SDS011;70441;44.758;37.686;2023-07-24T05:58:27;10.95;;;4.57;;
78901;SDS011;70441;44.758;37.686;2023-07-24T05:59:29;8.48;;;3.63;;
78901;SDS011;70441;44.758;37.686;2023-07-24T06:00:30;11.27;;;4.50;;
78901;SDS011;70441;44.758;37.686;2023-07-24T06:01:32;13.15;;;4.78;;
78901;SDS011;70441;44.758;37.686;2023-07-24T06:02:33;10.68;;;4.70;;
78901;SDS011;70441;44.758;37.686;2023-07-24T06:03:34;12.77;;;4.60;;
78901;SDS011;70441;44.758;37.686;2023-07-24T06:04:36;16.08;;;4.15;;
78901;SDS011;70441;44.758;37.686;2023-07-24T06:05:37;12.88;;;4.68;;
78901;SDS011;70441;44.758;37.686;2023-07-24T06:06:44;8.70;;;4.03;;
78901;SDS011;70441;44.758;37.686;2023-07-24T06:07:48;14.50;;;4.22;;
78901;SDS011;70441;44.758;37.686;2023-07-24T06:08:49;6.88;;;3.85;;
78901;SDS011;70441;44.758;37.686;2023-07-24T06:09:51;6.57;;;3.90;;
78901;SDS011;70441;44.758;37.686;2023-07-24T06:10:52;10.13;;;4.22;;
78901;SDS011;70441;44.758;37.686;2023-07-24T06:11:54;9.05;;;3.47;;
78901;SDS011;70441;44.758;37.686;2023-07-24T06:12:56;7.75;;;2.70;;
78901;SDS011;70441;44.758;37.686;2023-07-24T06:14:02;9.35;;;4.10;;
78901;SDS011;70441;44.758;37.686;2023-07-24T06:15:04;15.38;;;4.43;;
78901;SDS011;70441;44.758;37.686;2023-07-24T06:17:08;6.13;;;2.95;;
78901;SDS011;70441;44.758;37.686;2023-07-24T06:18:09;5.68;;;3.33;;
78901;SDS011;70441;44.758;37.686;2023-07-24T06:19:10;7.30;;;3.20;;
78901;SDS011;70441;44.758;37.686;2023-07-24T06:20:12;6.30;;;3.63;;
78901;SDS011;70441;44.758;37.686;2023-07-24T06:21:13;7.95;;;3.40;;
78901;SDS011;70441;44.758;37.686;2023-07-24T06:22:14;6.47;;;3.20;;
78901;SDS011;70441;44.758;37.686;2023-07-24T06:23:21;8.45;;;3.42;;
78901;SDS011;70441;44.758;37.686;2023-07-24T06:24:23;10.63;;;3.85;;
78901;SDS011;70441;44.758;37.686;2023-07-24T06:25:28;11.55;;;3.70;;
78901;SDS011;70441;44.758;37.686;2023-07-24T06:26:29;6.88;;;3.80;;
78901;SDS011;70441;44.758;37.686;2023-07-24T06:27:30;6.28;;;2.95;;
78901;SDS011;70441;44.758;37.686;2023-07-24T06:28:32;7.68;;;3.30;;
78901;SDS011;70441;44.758;37.686;2023-07-24T06:29:39;11.48;;;3.50;;
78901;SDS011;70441;44.758;37.686;2023-07-24T06:30:40;10.15;;;3.97;;
78901;SDS011;70441;44.758;37.686;2023-07-24T06:31:42;14.85;;;4.78;;
78901;SDS011;70441;44.758;37.686;2023-07-24T06:32:43;12.73;;;3.80;;
78901;SDS011;70441;44.758;37.686;2023-07-24T06:33:44;6.78;;;3.13;;
78901;SDS011;70441;44.758;37.686;2023-07-24T06:34:46;10.15;;;3.33;;
78901;SDS011;70441;44.758;37.686;2023-07-24T06:35:48;8.30;;;3.30;;
78901;SDS011;70441;44.758;37.686;2023-07-24T06:36:51;11.55;;;3.10;;
78901;SDS011;70441;44.758;37.686;2023-07-24T06:37:52;7.93;;;3.17;;
78901;SDS011;70441;44.758;37.686;2023-07-24T06:38:53;9.30;;;3.22;;
78901;SDS011;70441;44.758;37.686;2023-07-24T06:39:55;6.75;;;2.90;;
78901;SDS011;70441;44.758;37.686;2023-07-24T06:40:57;5.68;;;2.60;;
78901;SDS011;70441;44.758;37.686;2023-07-24T06:41:58;7.20;;;2.58;;
78901;SDS011;70441;44.758;37.686;2023-07-24T06:43:00;6.18;;;2.92;;
78901;SDS011;70441;44.758;37.686;2023-07-24T06:44:01;8.90;;;3.28;;
78901;SDS011;70441;44.758;37.686;2023-07-24T06:45:08;8.50;;;2.90;;
78901;SDS011;70441;44.758;37.686;2023-07-24T06:46:09;6.85;;;2.70;;
78901;SDS011;70441;44.758;37.686;2023-07-24T06:47:11;6.93;;;2.47;;
78901;SDS011;70441;44.758;37.686;2023-07-24T06:48:12;6.78;;;2.80;;
78901;SDS011;70441;44.758;37.686;2023-07-24T06:49:13;6.63;;;2.40;;
78901;SDS011;70441;44.758;37.686;2023-07-24T06:50:15;7.43;;;2.72;;
78901;SDS011;70441;44.758;37.686;2023-07-24T06:51:21;7.05;;;2.95;;
78901;SDS011;70441;44.758;37.686;2023-07-24T06:52:23;10.23;;;3.45;;
78901;SDS011;70441;44.758;37.686;2023-07-24T06:53:24;19.30;;;5.15;;
78901;SDS011;70441;44.758;37.686;2023-07-24T06:54:26;10.90;;;2.90;;
78901;SDS011;70441;44.758;37.686;2023-07-24T06:55:27;8.25;;;3.10;;
78901;SDS011;70441;44.758;37.686;2023-07-24T06:56:28;5.72;;;2.53;;
78901;SDS011;70441;44.758;37.686;2023-07-24T06:57:30;9.60;;;3.10;;
78901;SDS011;70441;44.758;37.686;2023-07-24T06:58:31;8.38;;;2.80;;
78901;SDS011;70441;44.758;37.686;2023-07-24T06:59:33;6.97;;;2.25;;
78901;SDS011;70441;44.758;37.686;2023-07-24T07:00:34;6.57;;;2.13;;
78901;SDS011;70441;44.758;37.686;2023-07-24T07:01:36;12.02;;;3.10;;
78901;SDS011;70441;44.758;37.686;2023-07-24T07:02:38;8.00;;;2.53;;
78901;SDS011;70441;44.758;37.686;2023-07-24T07:03:39;11.52;;;2.70;;
78901;SDS011;70441;44.758;37.686;2023-07-24T07:04:40;5.13;;;2.60;;
78901;SDS011;70441;44.758;37.686;2023-07-24T07:05:42;3.25;;;1.80;;
78901;SDS011;70441;44.758;37.686;2023-07-24T07:06:43;7.18;;;2.60;;
78901;SDS011;70441;44.758;37.686;2023-07-24T07:07:44;12.07;;;2.67;;
78901;SDS011;70441;44.758;37.686;2023-07-24T07:08:46;8.10;;;2.58;;
78901;SDS011;70441;44.758;37.686;2023-07-24T07:09:47;10.00;;;3.05;;
78901;SDS011;70441;44.758;37.686;2023-07-24T07:10:54;10.98;;;2.92;;
78901;SDS011;70441;44.758;37.686;2023-07-24T07:11:59;4.40;;;1.83;;
78901;SDS011;70441;44.758;37.686;2023-07-24T07:13:00;6.35;;;2.17;;
78901;SDS011;70441;44.758;37.686;2023-07-24T07:14:02;4.78;;;1.92;;
78901;SDS011;70441;44.758;37.686;2023-07-24T07:15:08;6.45;;;2.53;;
78901;SDS011;70441;44.758;37.686;2023-07-24T07:16:10;6.57;;;2.70;;
78901;SDS011;70441;44.758;37.686;2023-07-24T07:17:12;7.43;;;2.30;;
78901;SDS011;70441;44.758;37.686;2023-07-24T07:18:13;14.05;;;3.08;;
78901;SDS011;70441;44.758;37.686;2023-07-24T07:19:20;8.68;;;3.03;;
78901;SDS011;70441;44.758;37.686;2023-07-24T07:20:27;6.43;;;2.35;;
78901;SDS011;70441;44.758;37.686;2023-07-24T07:21:28;16.77;;;3.30;;
78901;SDS011;70441;44.758;37.686;2023-07-24T07:22:30;5.35;;;2.35;;
78901;SDS011;70441;44.758;37.686;2023-07-24T07:23:31;5.68;;;2.30;;
78901;SDS011;70441;44.758;37.686;2023-07-24T07:24:32;8.07;;;2.83;;
78901;SDS011;70441;44.758;37.686;2023-07-24T07:25:34;6.80;;;2.53;;
78901;SDS011;70441;44.758;37.686;2023-07-24T07:26:35;6.38;;;2.28;;
78901;SDS011;70441;44.758;37.686;2023-07-24T07:27:37;5.43;;;2.17;;
78901;SDS011;70441;44.758;37.686;2023-07-24T07:28:38;4.97;;;2.30;;
78901;SDS011;70441;44.758;37.686;2023-07-24T07:29:40;10.05;;;2.80;;
78901;SDS011;70441;44.758;37.686;2023-07-24T07:30:42;6.78;;;2.42;;
78901;SDS011;70441;44.758;37.686;2023-07-24T07:31:44;4.75;;;2.00;;
78901;SDS011;70441;44.758;37.686;2023-07-24T07:32:46;6.55;;;2.33;;
78901;SDS011;70441;44.758;37.686;2023-07-24T07:33:49;4.68;;;2.60;;
78901;SDS011;70441;44.758;37.686;2023-07-24T07:34:50;4.93;;;2.80;;
78901;SDS011;70441;44.758;37.686;2023-07-24T07:35:51;5.57;;;2.20;;
78901;SDS011;70441;44.758;37.686;2023-07-24T07:36:53;4.60;;;1.75;;
78901;SDS011;70441;44.758;37.686;2023-07-24T07:37:54;5.88;;;2.13;;
78901;SDS011;70441;44.758;37.686;2023-07-24T07:38:55;12.05;;;3.00;;
78901;SDS011;70441;44.758;37.686;2023-07-24T07:39:57;8.02;;;2.92;;
78901;SDS011;70441;44.758;37.686;2023-07-24T07:40:58;10.75;;;2.75;;
78901;SDS011;70441;44.758;37.686;2023-07-24T07:41:59;11.35;;;3.00;;
78901;SDS011;70441;44.758;37.686;2023-07-24T07:43:01;8.50;;;2.65;;
78901;SDS011;70441;44.758;37.686;2023-07-24T07:44:02;14.38;;;4.45;;
78901;SDS011;70441;44.758;37.686;2023-07-24T07:45:04;6.22;;;2.30;;
78901;SDS011;70441;44.758;37.686;2023-07-24T07:47:07;4.32;;;2.10;;
78901;SDS011;70441;44.758;37.686;2023-07-24T07:48:08;6.80;;;2.58;;
78901;SDS011;70441;44.758;37.686;2023-07-24T07:49:09;5.30;;;2.97;;
78901;SDS011;70441;44.758;37.686;2023-07-24T07:50:11;6.38;;;2.40;;
78901;SDS011;70441;44.758;37.686;2023-07-24T07:51:12;5.22;;;2.55;;
78901;SDS011;70441;44.758;37.686;2023-07-24T07:52:14;5.22;;;2.53;;
78901;SDS011;70441;44.758;37.686;2023-07-24T07:53:18;9.43;;;2.90;;
78901;SDS011;70441;44.758;37.686;2023-07-24T07:54:19;8.18;;;2.47;;
78901;SDS011;70441;44.758;37.686;2023-07-24T07:55:20;11.20;;;2.90;;
78901;SDS011;70441;44.758;37.686;2023-07-24T07:56:22;6.30;;;2.50;;
78901;SDS011;70441;44.758;37.686;2023-07-24T07:57:23;6.88;;;2.47;;
78901;SDS011;70441;44.758;37.686;2023-07-24T07:58:25;6.82;;;2.33;;
78901;SDS011;70441;44.758;37.686;2023-07-24T07:59:31;8.38;;;2.50;;
78901;SDS011;70441;44.758;37.686;2023-07-24T08:00:34;7.18;;;2.53;;
78901;SDS011;70441;44.758;37.686;2023-07-24T08:01:36;5.88;;;2.60;;
78901;SDS011;70441;44.758;37.686;2023-07-24T08:02:40;9.68;;;3.25;;
78901;SDS011;70441;44.758;37.686;2023-07-24T08:03:41;8.18;;;2.53;;
78901;SDS011;70441;44.758;37.686;2023-07-24T08:04:43;7.25;;;2.83;;
78901;SDS011;70441;44.758;37.686;2023-07-24T08:05:49;5.68;;;2.38;;
78901;SDS011;70441;44.758;37.686;2023-07-24T08:06:50;7.38;;;2.50;;
78901;SDS011;70441;44.758;37.686;2023-07-24T08:07:52;4.45;;;2.10;;
78901;SDS011;70441;44.758;37.686;2023-07-24T08:08:53;4.10;;;1.80;;
78901;SDS011;70441;44.758;37.686;2023-07-24T08:10:57;4.75;;;2.90;;
78901;SDS011;70441;44.758;37.686;2023-07-24T08:11:58;6.70;;;2.60;;
78901;SDS011;70441;44.758;37.686;2023-07-24T08:12:59;7.20;;;2.53;;
78901;SDS011;70441;44.758;37.686;2023-07-24T08:14:00;5.70;;;2.42;;
78901;SDS011;70441;44.758;37.686;2023-07-24T08:15:02;10.00;;;2.55;;
78901;SDS011;70441;44.758;37.686;2023-07-24T08:16:03;6.25;;;2.50;;
78901;SDS011;70441;44.758;37.686;2023-07-24T08:17:06;6.03;;;2.50;;
78901;SDS011;70441;44.758;37.686;2023-07-24T08:18:07;6.80;;;2.50;;
78901;SDS011;70441;44.758;37.686;2023-07-24T08:19:14;6.45;;;2.67;;
78901;SDS011;70441;44.758;37.686;2023-07-24T08:20:15;8.35;;;2.42;;
78901;SDS011;70441;44.758;37.686;2023-07-24T08:21:20;4.18;;;2.22;;
78901;SDS011;70441;44.758;37.686;2023-07-24T08:22:22;4.53;;;2.40;;
78901;SDS011;70441;44.758;37.686;2023-07-24T08:23:23;5.47;;;2.28;;
78901;SDS011;70441;44.758;37.686;2023-07-24T08:24:25;7.97;;;2.60;;
78901;SDS011;70441;44.758;37.686;2023-07-24T08:25:26;7.22;;;2.80;;
78901;SDS011;70441;44.758;37.686;2023-07-24T08:26:27;4.40;;;2.03;;
78901;SDS011;70441;44.758;37.686;2023-07-24T08:27:31;6.32;;;2.60;;
78901;SDS011;70441;44.758;37.686;2023-07-24T08:28:33;5.63;;;2.17;;